Aviation Digital Data Service (ADDS)

Output produced by METARs form (1901 UTC 16 October 2021)
found at http://www.aviationweather.gov/metar/data/
 
Forecast for: RJEC (ASAHIKAWA AIRPOR, JP)
Text: TAF RJEC 161705Z 1618/1800 28011KT 9999 FEW008 BKN020
Forecast period: 1800 UTC 16 October 2021 to 0600 UTC 17 October 2021
Forecast type: FROM: standard forecast or significant change
Winds: from the W (280 degrees) at 13 MPH (11 knots; 5.7 m/s)
Visibility: 6 or more miles (10+ km)
Ceiling: 2000 feet AGL
Clouds: few clouds at 800 feet AGL
broken clouds at 2000 feet AGL
Weather: no significant weather forecast for this period
Text: BECMG 1706/1709 17007KT
Forecast period: 0600 UTC 17 October 2021 to 0000 UTC 18 October 2021
Forecast type: BECOMING: Conditions expected to become as follows by 0900 UTC 17 October 2021
Winds: from the S (170 degrees) at 8 MPH (7 knots; 3.6 m/s)
Visibility: 6 or more miles (10+ km)
Ceiling: 2000 feet AGL
Clouds: few clouds at 800 feet AGL
broken clouds at 2000 feet AGL
Weather: no significant weather forecast for this period